createdAt,value
2023-05-21T00:01:34.715Z,95180.69
2023-05-21T00:04:06.210Z,95187.28
2023-05-21T00:06:37.545Z,95170.34
2023-05-21T00:09:08.044Z,95166.09
2023-05-21T00:11:37.566Z,95166.16
2023-05-21T00:14:07.259Z,95171.41
2023-05-21T00:16:36.834Z,95170.16
2023-05-21T00:19:06.491Z,95162.94
2023-05-21T00:21:37.340Z,95166.25
2023-05-21T00:24:08.186Z,95165.31
2023-05-21T00:26:37.706Z,95164.84
2023-05-21T00:29:07.616Z,95164.09
2023-05-21T00:31:37.263Z,95169.03
2023-05-21T00:34:06.831Z,95159.38
2023-05-21T00:36:38.096Z,95160.81
2023-05-21T00:39:08.839Z,95151.44
2023-05-21T00:41:40.134Z,95160.94
2023-05-21T00:44:10.192Z,95149.72
2023-05-21T00:46:41.228Z,95153.28
2023-05-21T00:49:11.197Z,95151.94
2023-05-21T00:51:42.341Z,95160.31
2023-05-21T00:54:12.010Z,95152.00
2023-05-21T00:56:41.709Z,95150.66
2023-05-21T00:59:11.623Z,95145.56
2023-05-21T01:01:41.252Z,95148.53
2023-05-21T01:04:11.059Z,95145.34
2023-05-21T01:06:42.590Z,95143.53
2023-05-21T01:09:12.416Z,95143.00
2023-05-21T01:11:46.214Z,95156.47
2023-05-21T01:14:18.009Z,95148.97
2023-05-21T01:16:52.189Z,95150.34
2023-05-21T01:19:24.054Z,95146.59
2023-05-21T01:22:07.020Z,95148.75
2023-05-21T01:24:39.127Z,95140.72
2023-05-21T01:27:10.426Z,95136.41
2023-05-21T01:29:40.003Z,95139.19
2023-05-21T01:32:19.273Z,95144.31
2023-05-21T01:35:01.863Z,95134.63
2023-05-21T01:37:39.232Z,95123.63
2023-05-21T01:40:19.471Z,95130.09
2023-05-21T01:42:49.519Z,95127.72
2023-05-21T01:45:19.749Z,95128.25
2023-05-21T01:47:53.203Z,95130.44
2023-05-21T01:50:25.731Z,95132.06
2023-05-21T01:52:58.574Z,95136.16
2023-05-21T01:55:31.334Z,95129.38
2023-05-21T01:58:02.446Z,95125.09
2023-05-21T02:00:32.712Z,95124.81
2023-05-21T02:03:02.855Z,95127.78
2023-05-21T02:05:32.588Z,95131.28
2023-05-21T02:08:03.352Z,95125.88
2023-05-21T02:10:34.223Z,95130.19
2023-05-21T02:13:04.421Z,95125.59
2023-05-21T02:15:35.445Z,95124.53
2023-05-21T02:18:05.485Z,95123.72
2023-05-21T02:20:35.977Z,95125.09
2023-05-21T02:23:05.590Z,95128.09
2023-05-21T02:25:37.012Z,95126.97
2023-05-21T02:28:07.343Z,95126.47
2023-05-21T02:30:36.836Z,95132.13
2023-05-21T02:33:09.318Z,95132.94
2023-05-21T02:35:38.993Z,95123.25
2023-05-21T02:38:09.170Z,95116.25
2023-05-21T02:40:40.094Z,95118.69
2023-05-21T02:43:09.744Z,95123.19
2023-05-21T02:45:39.510Z,95117.53
2023-05-21T02:48:09.280Z,95118.88
2023-05-21T02:50:43.018Z,95114.81
2023-05-21T02:53:12.572Z,95110.47
2023-05-21T02:55:43.604Z,95121.75
2023-05-21T02:58:14.968Z,95113.97
2023-05-21T03:00:44.720Z,95114.78
2023-05-21T03:03:15.259Z,95116.94
2023-05-21T03:05:45.787Z,95117.78
2023-05-21T03:08:15.483Z,95109.53
2023-05-21T03:10:46.468Z,95114.66
2023-05-21T03:13:16.395Z,95111.19
2023-05-21T03:15:46.561Z,95117.41
2023-05-21T03:18:16.488Z,95115.56
2023-05-21T03:20:45.961Z,95113.69
2023-05-21T03:23:16.884Z,95109.91
2023-05-21T03:25:48.571Z,95107.56
2023-05-21T03:28:19.568Z,95106.22
2023-05-21T03:30:53.354Z,95108.16
2023-05-21T03:33:31.879Z,95105.22
2023-05-21T03:36:02.664Z,95106.28
2023-05-21T18:08:17.743Z,95075.19
2023-05-21T18:10:48.025Z,95067.38
2023-05-21T18:13:17.752Z,95079.31
2023-05-21T18:15:47.990Z,95076.19
2023-05-21T18:18:21.349Z,95077.41
2023-05-21T18:20:51.770Z,95083.28
2023-05-21T18:23:22.781Z,95075.06
2023-05-21T18:25:52.508Z,95074.94
2023-05-21T18:28:22.189Z,95067.84
2023-05-21T18:30:51.789Z,95064.38
2023-05-21T18:33:21.342Z,95077.03
2023-05-21T18:35:50.831Z,95072.03
2023-05-21T18:38:20.409Z,95078.31
2023-05-21T18:40:52.123Z,95082.16
2023-05-21T18:43:21.679Z,95088.56
2023-05-21T18:45:51.228Z,95090.59
2023-05-21T18:48:20.828Z,95086.00
2023-05-21T18:50:50.698Z,95086.38
2023-05-21T18:53:20.485Z,95085.31
2023-05-21T18:55:51.574Z,95097.63
2023-05-21T18:58:21.350Z,95096.66
2023-05-21T19:00:51.184Z,95099.41
2023-05-21T19:03:20.720Z,95099.06
2023-05-21T19:05:50.408Z,95099.75
2023-05-21T19:08:21.163Z,95103.00
2023-05-21T19:10:52.980Z,95110.72
2023-05-21T19:13:22.762Z,95113.44
2023-05-21T19:15:53.455Z,95117.59
2023-05-21T19:18:30.215Z,95116.94
2023-05-21T19:21:00.902Z,95120.16
2023-05-21T19:23:38.370Z,95110.38
2023-05-21T19:26:19.638Z,95118.88
2023-05-21T19:28:53.178Z,95119.22
2023-05-21T19:31:25.331Z,95117.28
2023-05-21T19:33:55.125Z,95121.94
2023-05-21T19:36:26.872Z,95122.59
2023-05-21T19:38:58.906Z,95123.28
2023-05-21T19:41:29.889Z,95125.53
2023-05-21T19:43:59.467Z,95124.09
2023-05-21T19:46:29.303Z,95130.22
2023-05-21T19:48:59.344Z,95128.94
2023-05-21T19:51:28.984Z,95130.38
2023-05-21T19:54:00.114Z,95127.38
2023-05-21T19:56:31.664Z,95125.97
2023-05-21T19:59:01.225Z,95137.84
2023-05-21T20:01:33.161Z,95133.38
2023-05-21T20:04:02.864Z,95133.88
2023-05-21T20:06:32.617Z,95134.25
2023-05-21T20:09:02.428Z,95136.50
2023-05-21T20:11:33.604Z,95138.25
2023-05-21T20:14:03.235Z,95138.94
2023-05-21T20:16:33.442Z,95139.25
2023-05-21T20:19:03.874Z,95144.25
2023-05-21T20:21:33.701Z,95143.28
2023-05-21T20:24:03.676Z,95143.28
2023-05-21T20:26:40.095Z,95147.41
2023-05-21T20:29:09.716Z,95143.53
2023-05-21T20:31:53.162Z,95140.00
2023-05-21T20:34:22.828Z,95132.28
2023-05-21T20:36:58.257Z,95139.75
2023-05-21T20:39:29.630Z,95143.53
2023-05-21T20:42:00.973Z,95140.28
2023-05-21T20:44:30.554Z,95131.94
2023-05-21T20:47:01.669Z,95130.31
2023-05-21T20:49:33.142Z,95138.41
2023-05-21T20:52:02.774Z,95132.09
2023-05-21T20:54:32.286Z,95130.44
2023-05-21T20:57:04.258Z,95128.00
2023-05-21T20:59:34.409Z,95136.88
2023-05-21T21:02:04.020Z,95137.09
2023-05-21T21:04:33.565Z,95136.56
2023-05-21T21:07:03.092Z,95135.69
2023-05-21T21:09:32.742Z,95139.13
2023-05-21T21:12:24.001Z,95141.47
2023-05-21T21:14:55.343Z,95140.28
2023-05-21T21:17:25.195Z,95143.41
2023-05-21T21:19:54.811Z,95142.72
2023-05-21T21:22:24.395Z,95139.00
2023-05-21T21:24:53.886Z,95140.25
2023-05-21T21:27:24.964Z,95141.66
2023-05-21T21:29:54.646Z,95140.31
2023-05-21T21:32:24.372Z,95140.63
2023-05-21T21:34:54.163Z,95144.22
2023-05-21T21:37:23.785Z,95147.03
2023-05-21T21:39:54.519Z,95144.75
2023-05-21T21:42:25.475Z,95144.38
2023-05-21T21:44:54.988Z,95147.47
2023-05-21T21:47:24.575Z,95145.66
2023-05-21T21:49:54.121Z,95156.56
2023-05-21T21:52:27.374Z,95155.91
2023-05-21T21:54:59.674Z,95156.78
2023-05-21T21:57:31.449Z,95154.78
2023-05-21T22:00:01.013Z,95160.47
2023-05-21T22:02:30.825Z,95161.38
2023-05-21T22:05:00.546Z,95151.66
2023-05-21T22:07:32.114Z,95156.56
2023-05-21T22:10:02.583Z,95153.84
2023-05-21T22:12:33.887Z,95154.66
2023-05-21T22:15:05.244Z,95152.25
2023-05-21T22:17:35.918Z,95161.28
2023-05-21T22:20:07.309Z,95157.88
2023-05-21T22:22:36.785Z,95160.94
2023-05-21T22:25:07.523Z,95156.72
2023-05-21T22:27:38.635Z,95153.50
2023-05-21T22:30:10.520Z,95145.91
2023-05-21T22:32:40.533Z,95147.00
2023-05-21T22:35:12.569Z,95150.59
2023-05-21T22:37:42.333Z,95148.31
2023-05-21T22:40:13.019Z,95152.47
2023-05-21T22:42:46.252Z,95145.56
2023-05-21T22:45:16.930Z,95146.28
2023-05-21T22:47:46.553Z,95151.03
2023-05-21T22:50:16.740Z,95147.09
2023-05-21T22:52:46.413Z,95147.78
2023-05-21T22:55:16.768Z,95147.34
2023-05-21T22:57:56.832Z,95149.38
2023-05-21T23:00:27.552Z,95149.50
2023-05-21T23:02:57.082Z,95153.34
2023-05-21T23:05:26.767Z,95145.03
2023-05-21T23:07:56.329Z,95148.00
2023-05-21T23:10:26.225Z,95145.81
2023-05-21T23:12:57.347Z,95143.41
2023-05-21T23:15:29.507Z,95144.81
2023-05-21T23:18:00.553Z,95156.75
2023-05-21T23:20:30.144Z,95145.44
2023-05-21T23:22:59.719Z,95146.25
2023-05-21T23:25:29.456Z,95152.72
2023-05-21T23:28:00.330Z,95142.59
2023-05-21T23:30:29.851Z,95141.06
2023-05-21T23:32:59.516Z,95143.25
2023-05-21T23:35:29.178Z,95144.34
2023-05-21T23:37:58.684Z,95136.03
2023-05-21T23:40:28.254Z,95141.69
2023-05-21T23:42:59.204Z,95142.56
2023-05-21T23:45:28.772Z,95139.44
2023-05-21T23:47:58.438Z,95136.00
2023-05-21T23:50:28.036Z,95135.00
2023-05-21T23:52:57.870Z,95143.69
2023-05-21T23:55:27.582Z,95148.31
2023-05-21T23:57:57.108Z,95141.13
